createdAt,value
2023-02-09T00:01:53.188Z,101890.28
2023-02-09T00:06:54.638Z,101886.25
2023-02-09T00:12:14.264Z,101884.97
2023-02-09T00:17:15.659Z,101888.97
2023-02-09T00:22:17.039Z,101889.44
2023-02-09T00:27:18.447Z,101875.91
2023-02-09T00:32:19.840Z,101890.91
2023-02-09T00:37:21.219Z,101882.69
2023-02-09T00:42:22.592Z,101879.97
2023-02-09T00:47:24.015Z,101878.91
2023-02-09T00:52:25.390Z,101869.03
2023-02-09T00:57:26.782Z,101867.13
2023-02-09T01:02:28.238Z,101864.59
2023-02-09T01:07:29.723Z,101867.50
2023-02-09T01:12:31.146Z,101871.50
2023-02-09T01:17:32.535Z,101858.91
2023-02-09T01:22:33.981Z,101856.78
2023-02-09T01:27:35.367Z,101847.72
2023-02-09T01:32:36.913Z,101852.63
2023-02-09T01:37:38.361Z,101843.75
2023-02-09T01:42:42.840Z,101847.34
2023-02-09T01:47:46.044Z,101838.69
2023-02-09T01:52:47.482Z,101831.97
2023-02-09T01:57:57.791Z,101834.53
2023-02-09T02:03:01.740Z,101830.47
2023-02-09T02:08:09.345Z,101829.00
2023-02-09T02:13:10.754Z,101831.78
2023-02-09T02:18:32.260Z,101827.16
2023-02-09T02:24:12.555Z,101821.25
2023-02-09T02:29:29.052Z,101822.28
2023-02-09T02:34:45.592Z,101834.06
2023-02-09T02:40:00.907Z,101822.09
2023-02-09T02:45:12.566Z,101815.53
2023-02-09T02:50:15.358Z,101818.69
2023-02-09T02:55:18.092Z,101812.19
2023-02-09T03:00:23.448Z,101815.56
2023-02-09T03:05:24.944Z,101807.59
2023-02-09T03:10:34.336Z,101809.47
2023-02-09T03:15:57.457Z,101809.28
2023-02-09T03:21:06.252Z,101804.84
2023-02-09T03:26:09.756Z,101808.44
2023-02-09T03:31:11.206Z,101808.44
2023-02-09T03:36:15.641Z,101802.97
2023-02-09T03:41:17.025Z,101805.03
2023-02-09T03:46:18.446Z,101790.56
2023-02-09T03:51:19.816Z,101800.03
2023-02-09T03:56:24.762Z,101802.75
2023-02-09T04:01:26.135Z,101795.63
2023-02-09T04:06:28.879Z,101785.50
2023-02-09T04:11:30.289Z,101787.81
2023-02-09T04:16:31.799Z,101783.84
2023-02-09T04:21:33.203Z,101792.22
2023-02-09T04:26:34.640Z,101791.19
2023-02-09T04:31:36.081Z,101783.22
2023-02-09T04:36:37.560Z,101779.22
2023-02-09T04:41:38.948Z,101765.09
2023-02-09T04:46:40.397Z,101775.19
2023-02-09T04:51:41.781Z,101767.19
2023-02-09T04:56:43.155Z,101771.41
2023-02-09T05:01:44.536Z,101760.03
2023-02-09T05:06:45.927Z,101768.91
2023-02-09T05:11:47.321Z,101765.34
2023-02-09T05:16:48.812Z,101766.38
2023-02-09T05:21:50.192Z,101758.78
2023-02-09T05:26:51.572Z,101760.47
2023-02-09T05:31:52.978Z,101748.94
2023-02-09T05:36:54.385Z,101748.53
2023-02-09T05:42:13.986Z,101744.75
2023-02-09T05:47:16.983Z,101745.41
2023-02-09T05:52:18.665Z,101741.63
2023-02-09T05:57:20.054Z,101743.69
2023-02-09T06:02:21.464Z,101741.63
2023-02-09T06:07:22.866Z,101745.63
2023-02-09T06:12:24.351Z,101752.56
2023-02-09T06:17:25.846Z,101751.50
2023-02-09T06:22:29.049Z,101759.09
2023-02-09T06:27:30.453Z,101762.03
2023-02-09T06:32:31.842Z,101764.97
2023-02-09T06:37:33.265Z,101770.63
2023-02-09T06:42:46.316Z,101776.31
2023-02-09T06:47:47.700Z,101776.94
2023-02-09T06:52:49.099Z,101777.41
2023-02-09T06:57:50.474Z,101776.50
2023-02-09T07:02:52.001Z,101772.09
2023-02-09T07:07:53.444Z,101758.25
2023-02-09T07:12:57.002Z,101742.09
2023-02-09T07:17:58.402Z,101748.19
2023-02-09T07:23:01.266Z,101746.53
2023-02-09T07:28:02.770Z,101762.94
2023-02-09T07:33:04.482Z,101758.31
2023-02-09T07:38:05.967Z,101764.84
2023-02-09T07:43:07.464Z,101762.78
2023-02-09T07:48:09.927Z,101766.13
2023-02-09T07:53:11.305Z,101761.53
2023-02-09T07:58:12.767Z,101768.50
2023-02-09T08:03:15.240Z,101767.84
2023-02-09T08:08:16.621Z,101770.38
2023-02-09T08:13:18.003Z,101779.44
2023-02-09T08:18:25.267Z,101779.84
2023-02-09T08:23:31.061Z,101783.88
2023-02-09T08:28:43.531Z,101783.66
2023-02-09T08:33:46.462Z,101793.09
2023-02-09T08:38:50.764Z,101783.00
2023-02-09T08:43:52.153Z,101774.81
2023-02-09T08:48:53.532Z,101781.53
2023-02-09T08:53:54.932Z,101776.06
2023-02-09T08:58:56.360Z,101777.13
2023-02-09T09:03:57.802Z,101768.31
2023-02-09T09:08:59.219Z,101767.47
2023-02-09T09:14:00.749Z,101771.72
2023-02-09T09:19:03.387Z,101774.25
2023-02-09T09:24:04.933Z,101778.03
2023-02-09T09:29:06.327Z,101781.44
2023-02-09T09:34:07.718Z,101767.09
2023-02-09T09:39:09.092Z,101774.69
2023-02-09T09:44:14.157Z,101777.84
2023-02-09T09:49:24.099Z,101771.53
2023-02-09T09:54:25.901Z,101771.28
2023-02-09T09:59:30.279Z,101784.78
2023-02-09T10:04:33.027Z,101776.78
2023-02-09T10:09:55.884Z,101775.28
2023-02-09T10:14:57.377Z,101770.47
2023-02-09T10:20:04.243Z,101766.69
2023-02-09T10:25:44.445Z,101762.91
2023-02-09T10:30:46.296Z,101754.69
2023-02-09T10:35:51.410Z,101751.34
2023-02-09T10:40:53.126Z,101743.75
2023-02-09T10:45:56.252Z,101728.38
2023-02-09T10:51:05.464Z,101723.31
2023-02-09T10:56:09.545Z,101716.16
2023-02-09T11:01:19.407Z,101717.41
2023-02-09T11:06:20.841Z,101713.78
2023-02-09T11:11:33.084Z,101704.28
2023-02-09T11:17:02.556Z,101690.19
2023-02-09T11:22:19.113Z,101673.97
2023-02-09T11:27:21.438Z,101665.34
2023-02-09T11:32:23.546Z,101671.44
2023-02-09T11:37:40.410Z,101654.59
2023-02-09T11:42:45.944Z,101649.13
2023-02-09T11:48:26.125Z,101637.75
2023-02-09T11:53:55.486Z,101640.06
2023-02-09T11:59:18.724Z,101630.59
2023-02-09T12:04:25.494Z,101609.78
2023-02-09T12:09:39.007Z,101604.13
2023-02-09T12:14:58.340Z,101597.81
2023-02-09T12:20:00.590Z,101590.84
2023-02-09T12:25:18.532Z,101570.03
2023-02-09T12:30:41.528Z,101585.78
2023-02-09T12:35:42.945Z,101566.00
2023-02-09T12:40:44.489Z,101552.97
2023-02-09T12:45:46.442Z,101549.84
2023-02-09T12:50:53.430Z,101528.59
2023-02-09T12:56:14.503Z,101508.63
2023-02-09T13:01:16.254Z,101510.72
2023-02-09T13:06:36.413Z,101518.28
2023-02-09T13:11:44.758Z,101526.06
2023-02-09T13:17:04.407Z,101512.84
2023-02-09T13:22:29.961Z,101504.81
2023-02-09T13:27:31.283Z,101502.72
2023-02-09T13:33:11.559Z,101492.00
2023-02-09T13:38:15.794Z,101476.25
2023-02-09T13:43:20.688Z,101462.59
2023-02-09T13:48:28.748Z,101484.66
2023-02-09T13:53:30.689Z,101488.84
2023-02-09T13:58:34.947Z,101496.88
2023-02-09T14:03:46.920Z,101493.47
2023-02-09T14:08:57.800Z,101511.34
2023-02-09T14:14:01.727Z,101503.38
2023-02-09T14:19:03.330Z,101508.63
2023-02-09T14:24:18.947Z,101502.97
2023-02-09T14:29:28.163Z,101523.78
2023-02-09T14:34:35.636Z,101533.19
2023-02-09T14:39:56.255Z,101523.75
2023-02-09T14:45:27.335Z,101524.16
2023-02-09T14:50:28.700Z,101530.69
2023-02-09T14:55:30.149Z,101534.66
2023-02-09T15:00:31.609Z,101523.97
2023-02-09T15:05:32.984Z,101517.88
2023-02-09T15:10:36.365Z,101518.06
2023-02-09T15:15:39.576Z,101512.19
2023-02-09T15:20:40.970Z,101521.63
2023-02-09T15:25:42.429Z,101512.16
2023-02-09T15:30:44.143Z,101521.00
2023-02-09T15:35:46.227Z,101519.72
2023-02-09T15:41:06.734Z,101531.28
2023-02-09T15:46:26.742Z,101541.59
2023-02-09T15:51:31.178Z,101540.56
2023-02-09T15:56:32.574Z,101543.91
2023-02-09T16:01:34.361Z,101543.91
2023-02-09T16:06:35.914Z,101546.47
2023-02-09T16:11:40.017Z,101550.22
2023-02-09T16:16:41.415Z,101546.22
2023-02-09T16:21:44.736Z,101552.53
2023-02-09T16:26:46.117Z,101557.16
2023-02-09T16:31:47.761Z,101555.47
2023-02-09T16:36:49.178Z,101551.69
2023-02-09T16:41:50.772Z,101568.94
2023-02-09T16:46:53.744Z,101562.59
2023-02-09T16:51:56.130Z,101567.03
2023-02-09T16:56:57.561Z,101568.94
2023-02-09T17:01:59.763Z,101583.84
2023-02-09T17:07:01.285Z,101581.34
2023-02-09T17:12:02.667Z,101585.09
2023-02-09T17:17:04.053Z,101591.00
2023-02-09T17:22:12.004Z,101604.47
2023-02-09T17:27:13.578Z,101610.34
2023-02-09T17:32:15.098Z,101598.38
2023-02-09T17:37:16.669Z,101625.88
2023-02-09T17:42:21.357Z,101617.91
2023-02-09T17:47:23.999Z,101631.75
2023-02-09T17:52:25.373Z,101641.22
2023-02-09T17:57:27.454Z,101643.31
2023-02-09T18:02:28.919Z,101642.06
2023-02-09T18:07:30.346Z,101642.69
2023-02-09T18:12:31.722Z,101643.09
2023-02-09T18:17:33.094Z,101627.09
2023-02-09T18:22:34.547Z,101627.94
2023-02-09T18:27:36.091Z,101625.88
2023-02-09T18:32:37.501Z,101624.19
2023-02-09T18:37:38.936Z,101620.81
2023-02-09T18:42:40.384Z,101608.19
2023-02-09T18:47:43.081Z,101617.41
2023-02-09T18:53:00.408Z,101626.47
2023-02-09T18:58:02.914Z,101632.16
2023-02-09T19:03:04.323Z,101626.47
2023-02-09T19:08:07.187Z,101612.63
2023-02-09T19:13:08.633Z,101623.53
2023-02-09T19:18:10.017Z,101616.16
2023-02-09T19:23:11.422Z,101618.28
2023-02-09T19:28:12.813Z,101617.41
2023-02-09T19:33:14.312Z,101606.72
2023-02-09T19:38:15.698Z,101608.41
2023-02-09T19:43:17.087Z,101614.28
2023-02-09T19:48:18.455Z,101614.06
2023-02-09T19:53:19.829Z,101619.53
2023-02-09T19:58:21.627Z,101619.97
2023-02-09T20:03:23.857Z,101608.59
2023-02-09T20:08:25.382Z,101625.00
2023-02-09T20:13:26.757Z,101621.41
2023-02-09T20:18:28.147Z,101647.06
2023-02-09T20:23:29.660Z,101634.44
2023-02-09T20:28:31.049Z,101633.00
2023-02-09T20:33:33.942Z,101629.81
2023-02-09T20:38:35.820Z,101628.75
2023-02-09T20:43:56.483Z,101637.81
2023-02-09T20:48:57.870Z,101626.69
2023-02-09T20:53:59.308Z,101616.78
2023-02-09T20:59:00.785Z,101616.34
2023-02-09T21:04:02.180Z,101606.47
2023-02-09T21:09:05.192Z,101614.91
2023-02-09T21:14:06.604Z,101596.81
2023-02-09T21:19:08.011Z,101611.72
2023-02-09T21:24:09.869Z,101613.84
2023-02-09T21:29:11.356Z,101618.22
2023-02-09T21:34:14.567Z,101638.88
2023-02-09T21:39:15.947Z,101646.22
2023-02-09T21:44:17.379Z,101651.03
2023-02-09T21:49:18.775Z,101655.25
2023-02-09T21:54:20.174Z,101652.09
2023-02-09T21:59:21.565Z,101669.13
2023-02-09T22:04:22.960Z,101673.72
2023-02-09T22:09:25.031Z,101679.19
2023-02-09T22:14:26.436Z,101686.34
2023-02-09T22:19:27.864Z,101699.00
2023-02-09T22:24:30.106Z,101690.56
2023-02-09T22:29:33.118Z,101696.25
2023-02-09T22:34:34.533Z,101682.78
2023-02-09T22:39:35.960Z,101682.59
2023-02-09T22:44:37.327Z,101671.00
2023-02-09T22:49:38.702Z,101685.50
2023-02-09T22:54:40.086Z,101673.94
2023-02-09T22:59:41.872Z,101682.16
2023-02-09T23:04:43.261Z,101672.69
2023-02-09T23:09:44.637Z,101674.56
2023-02-09T23:14:46.087Z,101670.81
2023-02-09T23:19:47.494Z,101677.31
2023-02-09T23:24:48.877Z,101672.69
2023-02-09T23:29:50.278Z,101664.91
2023-02-09T23:34:51.693Z,101660.28
2023-02-09T23:39:53.150Z,101656.69
2023-02-09T23:44:54.534Z,101665.75
2023-02-09T23:49:56.988Z,101677.31
2023-02-09T23:54:58.372Z,101686.75
2023-02-09T23:59:59.770Z,101688.47
